createdAt,value
2023-03-05T00:00:20.237Z,2.08
2023-03-05T00:01:20.238Z,2.08
2023-03-05T00:02:20.241Z,2.08
2023-03-05T00:03:20.247Z,2.06
2023-03-05T00:04:20.196Z,2.06
2023-03-05T00:05:20.184Z,2.02
2023-03-05T00:06:20.170Z,1.99
2023-03-05T00:07:20.195Z,2.04
2023-03-05T00:08:20.153Z,2.04
2023-03-05T00:09:20.145Z,2.04
2023-03-05T00:10:20.140Z,2.04
2023-03-05T00:11:20.130Z,2.04
2023-03-05T00:12:20.125Z,2.06
2023-03-05T00:13:20.106Z,2.06
2023-03-05T00:14:20.093Z,2.08
2023-03-05T00:15:20.083Z,2.08
2023-03-05T00:16:20.178Z,2.09
2023-03-05T00:17:20.087Z,2.04
2023-03-05T00:18:20.053Z,2.06
2023-03-05T00:19:20.047Z,2.02
2023-03-05T00:20:20.048Z,2.02
2023-03-05T00:21:20.027Z,2.01
2023-03-05T00:22:20.025Z,2.02
2023-03-05T00:23:20.013Z,1.99
2023-03-05T00:24:19.993Z,1.93
2023-03-05T00:25:19.982Z,1.85
2023-03-05T00:26:19.965Z,1.78
2023-03-05T00:27:19.989Z,1.76
2023-03-05T00:28:19.956Z,1.71
2023-03-05T00:29:19.947Z,1.68
2023-03-05T00:30:19.928Z,1.60
2023-03-05T00:31:19.968Z,1.57
2023-03-05T00:32:20.026Z,1.50
2023-03-05T00:33:19.909Z,1.44
2023-03-05T00:34:19.903Z,1.37
2023-03-05T00:35:19.897Z,1.36
2023-03-05T00:36:19.875Z,1.26
2023-03-05T00:37:19.885Z,1.22
2023-03-05T00:38:19.854Z,1.21
2023-03-05T00:39:19.864Z,1.19
2023-03-05T00:40:19.895Z,1.16
2023-03-05T00:41:19.837Z,1.14
2023-03-05T00:42:19.834Z,1.08
2023-03-05T00:43:19.813Z,1.07
2023-03-05T00:44:19.799Z,1.03
2023-03-05T00:45:19.817Z,1.01
2023-03-05T00:46:19.807Z,0.98
2023-03-05T00:47:19.842Z,0.97
2023-03-05T00:48:19.755Z,0.98
2023-03-05T00:49:19.772Z,1.01
2023-03-05T00:50:19.745Z,1.00
2023-03-05T00:51:19.731Z,1.03
2023-03-05T00:52:19.731Z,1.04
2023-03-05T00:53:19.711Z,1.03
2023-03-05T00:54:19.715Z,1.06
2023-03-05T00:55:19.704Z,1.06
2023-03-05T00:56:19.674Z,1.07
2023-03-05T00:57:19.690Z,1.08
2023-03-05T00:58:19.658Z,1.14
2023-03-05T00:59:19.654Z,1.12
2023-03-05T01:00:19.637Z,1.16
2023-03-05T01:01:19.661Z,1.16
2023-03-05T01:02:19.637Z,1.19
2023-03-05T01:03:19.617Z,1.19
2023-03-05T01:04:19.593Z,1.19
2023-03-05T01:05:19.654Z,1.22
2023-03-05T01:06:19.571Z,1.22
2023-03-05T01:07:19.571Z,1.22
2023-03-05T01:08:19.544Z,1.22
2023-03-05T01:09:19.541Z,1.24
2023-03-05T01:10:19.526Z,1.25
2023-03-05T01:11:19.514Z,1.24
2023-03-05T01:12:19.537Z,1.28
2023-03-05T01:13:19.493Z,1.34
2023-03-05T01:14:19.519Z,1.34
2023-03-05T01:15:19.476Z,1.37
2023-03-05T01:16:19.528Z,1.36
2023-03-05T01:17:19.456Z,1.37
2023-03-05T01:18:19.454Z,1.40
2023-03-05T01:19:19.440Z,1.40
2023-03-05T01:20:19.422Z,1.39
2023-03-05T01:21:19.429Z,1.43
2023-03-05T01:22:19.416Z,1.42
2023-03-05T01:23:19.393Z,1.44
2023-03-05T01:24:19.380Z,1.43
2023-03-05T01:25:19.368Z,1.43
2023-03-05T01:26:19.387Z,1.43
2023-03-05T01:27:19.367Z,1.42
2023-03-05T01:28:19.335Z,1.42
2023-03-05T01:29:19.327Z,1.40
2023-03-05T01:30:19.321Z,1.40
2023-03-05T01:31:19.359Z,1.40
2023-03-05T01:32:19.406Z,1.36
2023-03-05T01:33:19.290Z,1.37
2023-03-05T01:34:25.395Z,1.37
2023-03-05T01:35:21.976Z,1.36
2023-03-05T01:36:19.941Z,1.36
2023-03-05T01:37:19.289Z,1.37
2023-03-05T01:38:19.249Z,1.36
2023-03-05T01:39:19.228Z,1.32
2023-03-05T01:40:19.221Z,1.37
2023-03-05T01:41:19.212Z,1.36
2023-03-05T01:42:19.218Z,1.34
2023-03-05T01:43:19.208Z,1.36
2023-03-05T01:44:19.182Z,1.33
2023-03-05T01:45:19.184Z,1.32
2023-03-05T01:46:19.161Z,1.29
2023-03-05T01:47:19.170Z,1.34
2023-03-05T01:48:19.144Z,1.34
2023-03-05T01:49:19.144Z,1.34
2023-03-05T01:50:19.130Z,1.34
2023-03-05T01:51:19.117Z,1.34
2023-03-05T01:52:19.115Z,1.36
2023-03-05T01:53:19.103Z,1.34
2023-03-05T01:54:19.087Z,1.34
2023-03-05T01:55:19.080Z,1.33
2023-03-05T01:56:19.062Z,1.36
2023-03-05T01:57:19.064Z,1.36
2023-03-05T01:58:19.053Z,1.36
2023-03-05T01:59:19.042Z,1.36
2023-03-05T02:00:19.042Z,1.37
2023-03-05T02:01:19.032Z,1.39
2023-03-05T02:02:19.002Z,1.36
2023-03-05T02:03:19.007Z,1.37
2023-03-05T02:04:18.986Z,1.36
2023-03-05T02:05:18.972Z,1.33
2023-03-05T02:06:18.978Z,1.34
2023-03-05T02:07:18.955Z,1.37
2023-03-05T02:08:18.958Z,1.34
2023-03-05T02:09:18.928Z,1.33
2023-03-05T02:10:18.925Z,1.26
2023-03-05T02:11:18.912Z,1.26
2023-03-05T02:12:18.908Z,1.25
2023-03-05T02:13:18.919Z,1.28
2023-03-05T02:14:18.886Z,1.28
2023-03-05T02:15:18.870Z,1.28
2023-03-05T02:16:18.935Z,1.28
2023-03-05T02:17:18.918Z,1.26
2023-03-05T02:18:18.862Z,1.29
2023-03-05T02:19:18.846Z,1.25
2023-03-05T02:20:18.844Z,1.24
2023-03-05T02:21:18.818Z,1.25
2023-03-05T02:22:18.825Z,1.26
2023-03-05T02:23:18.836Z,1.26
2023-03-05T02:24:18.798Z,1.25
2023-03-05T02:25:18.787Z,1.26
2023-03-05T02:26:18.775Z,1.24
2023-03-05T02:27:18.760Z,1.25
2023-03-05T02:28:18.784Z,1.24
2023-03-05T02:29:18.739Z,1.24
2023-03-05T02:30:18.735Z,1.24
2023-03-05T02:31:18.776Z,1.22
2023-03-05T02:32:18.801Z,1.25
2023-03-05T02:33:18.721Z,1.22
2023-03-05T02:34:18.700Z,1.28
2023-03-05T02:35:18.856Z,1.26
2023-03-05T02:36:18.685Z,1.24
2023-03-05T02:37:18.675Z,1.24
2023-03-05T02:38:18.674Z,1.21
2023-03-05T02:39:18.642Z,1.24
2023-03-05T02:40:18.671Z,1.24
2023-03-05T02:41:18.621Z,1.26
2023-03-05T02:42:18.621Z,1.24
2023-03-05T02:43:18.628Z,1.19
2023-03-05T02:44:18.597Z,1.28
2023-03-05T02:45:18.582Z,1.24
2023-03-05T02:46:18.581Z,1.28
2023-03-05T02:47:18.561Z,1.25
2023-03-05T02:48:18.574Z,1.24
2023-03-05T02:49:18.551Z,1.22
2023-03-05T02:50:18.535Z,1.24
2023-03-05T02:51:18.525Z,1.25
2023-03-05T02:52:18.531Z,1.25
2023-03-05T02:53:18.520Z,1.24
2023-03-05T02:54:18.502Z,1.25
2023-03-05T02:55:18.481Z,1.25
2023-03-05T02:56:18.477Z,1.25
2023-03-05T02:57:18.468Z,1.28
2023-03-05T02:58:18.476Z,1.32
2023-03-05T02:59:18.449Z,1.28
2023-03-05T03:00:18.446Z,1.32
2023-03-05T03:01:18.444Z,1.29
2023-03-05T03:02:18.420Z,1.29
2023-03-05T03:03:18.535Z,1.28
2023-03-05T03:04:18.410Z,1.26
2023-03-05T03:05:18.382Z,1.25
2023-03-05T03:06:18.381Z,1.25
2023-03-05T03:07:18.361Z,1.26
2023-03-05T03:08:18.375Z,1.25
2023-03-05T03:09:18.349Z,1.24
2023-03-05T03:10:18.344Z,1.25
2023-03-05T03:11:18.328Z,1.28
2023-03-05T03:12:18.319Z,1.28
2023-03-05T03:13:18.325Z,1.28
2023-03-05T03:14:18.301Z,1.25
2023-03-05T03:15:18.287Z,1.24
2023-03-05T03:16:18.307Z,1.26
2023-03-05T03:17:18.271Z,1.26
2023-03-05T03:18:18.282Z,1.26
2023-03-05T03:19:18.254Z,1.29
2023-03-05T03:20:18.240Z,1.28
2023-03-05T03:21:18.228Z,1.25
2023-03-05T03:22:18.233Z,1.21
2023-03-05T03:23:18.220Z,1.25
2023-03-05T03:24:18.209Z,1.26
2023-03-05T03:25:18.199Z,1.26
2023-03-05T03:26:18.181Z,1.26
2023-03-05T03:27:18.188Z,1.25
2023-03-05T03:28:18.181Z,1.25
2023-03-05T03:29:18.161Z,1.25
2023-03-05T03:30:18.146Z,1.26
2023-03-05T03:31:18.186Z,1.26
2023-03-05T03:32:18.169Z,1.26
2023-03-05T03:33:18.132Z,1.28
2023-03-05T03:34:18.103Z,1.32
2023-03-05T03:35:18.124Z,1.33
2023-03-05T03:36:18.088Z,1.29
2023-03-05T03:37:18.070Z,1.32
2023-03-05T03:38:18.087Z,1.34
2023-03-05T03:39:18.049Z,1.29
2023-03-05T03:40:18.050Z,1.28
2023-03-05T03:41:18.032Z,1.32
2023-03-05T03:42:18.029Z,1.32
2023-03-05T03:43:18.027Z,1.32
2023-03-05T03:44:18.005Z,1.28
2023-03-05T03:45:18.009Z,1.29
2023-03-05T03:46:18.041Z,1.26
2023-03-05T03:47:17.976Z,1.28
2023-03-05T03:48:17.998Z,1.28
2023-03-05T03:49:17.955Z,1.28
2023-03-05T03:50:17.950Z,1.29
2023-03-05T03:51:17.933Z,1.29
2023-03-05T03:52:17.927Z,1.33
2023-03-05T03:53:17.939Z,1.29
2023-03-05T03:54:17.937Z,1.36
2023-03-05T03:55:17.898Z,1.36
2023-03-05T03:56:17.893Z,1.34
2023-03-05T03:57:17.873Z,1.34
2023-03-05T03:58:17.892Z,1.34
2023-03-05T03:59:17.857Z,1.34
2023-03-05T04:00:17.848Z,1.34
2023-03-05T04:01:17.832Z,1.37
2023-03-05T04:02:17.892Z,1.37
2023-03-05T04:03:17.833Z,1.39
2023-03-05T04:04:17.814Z,1.39
2023-03-05T04:05:17.791Z,1.39
2023-03-05T04:06:17.788Z,1.40
2023-03-05T04:07:17.778Z,1.40
2023-03-05T04:08:17.785Z,1.40
2023-03-05T04:09:17.756Z,1.40
2023-03-05T04:10:17.758Z,1.39
2023-03-05T04:11:17.735Z,1.42
2023-03-05T04:12:17.730Z,1.39
2023-03-05T04:13:17.731Z,1.39
2023-03-05T04:14:17.709Z,1.42
2023-03-05T04:15:17.705Z,1.40
2023-03-05T04:16:17.739Z,1.42
2023-03-05T04:17:17.688Z,1.42
2023-03-05T04:18:17.692Z,1.40
2023-03-05T04:19:17.656Z,1.40
2023-03-05T04:20:17.652Z,1.39
2023-03-05T04:21:17.639Z,1.39
2023-03-05T04:22:17.647Z,1.39
2023-03-05T04:23:17.631Z,1.36
2023-03-05T04:24:17.633Z,1.34
2023-03-05T04:25:17.605Z,1.34
2023-03-05T04:26:17.594Z,1.33
2023-03-05T04:27:17.584Z,1.34
2023-03-05T04:28:17.590Z,1.32
2023-03-05T04:29:17.553Z,1.36
2023-03-05T04:30:17.550Z,1.36
2023-03-05T04:31:17.632Z,1.39
2023-03-05T04:32:17.558Z,1.42
2023-03-05T04:33:17.559Z,1.40
2023-03-05T04:34:17.509Z,1.39
2023-03-05T04:35:17.537Z,1.39
2023-03-05T04:36:17.494Z,1.40
2023-03-05T04:37:17.470Z,1.43
2023-03-05T04:38:17.495Z,1.46
2023-03-05T04:39:17.451Z,1.44
2023-03-05T04:40:17.449Z,1.46
2023-03-05T04:41:17.435Z,1.46
2023-03-05T04:42:17.430Z,1.47
2023-03-05T04:43:17.434Z,1.47
2023-03-05T04:44:17.406Z,1.51
2023-03-05T04:45:17.389Z,1.47
2023-03-05T04:46:17.422Z,1.51
2023-03-05T04:47:17.400Z,1.47
2023-03-05T04:48:17.389Z,1.47
2023-03-05T04:49:17.350Z,1.50
2023-03-05T04:50:17.346Z,1.47
2023-03-05T04:51:17.347Z,1.43
2023-03-05T04:52:17.338Z,1.43
2023-03-05T04:53:17.328Z,1.43
2023-03-05T04:54:17.304Z,1.42
2023-03-05T04:55:17.292Z,1.42
2023-03-05T04:56:17.284Z,1.40
2023-03-05T04:57:17.271Z,1.39
2023-03-05T04:58:17.279Z,1.40
2023-03-05T04:59:17.255Z,1.37
2023-03-05T05:00:17.268Z,1.36
2023-03-05T05:01:17.269Z,1.34
2023-03-05T05:02:17.226Z,1.36
2023-03-05T05:03:17.326Z,1.37
2023-03-05T05:04:17.206Z,1.36
2023-03-05T05:05:17.194Z,1.33
2023-03-05T05:06:17.189Z,1.36
2023-03-05T05:07:17.176Z,1.36
2023-03-05T05:08:17.189Z,1.33
2023-03-05T05:09:17.153Z,1.29
2023-03-05T05:10:17.151Z,1.26
2023-03-05T05:11:17.138Z,1.29
2023-03-05T05:12:17.127Z,1.28
2023-03-05T05:13:17.131Z,1.33
2023-03-05T05:14:17.105Z,1.33
2023-03-05T05:15:17.112Z,1.37
2023-03-05T05:16:17.111Z,1.36
2023-03-05T05:17:17.080Z,1.34
2023-03-05T05:18:17.084Z,1.32
2023-03-05T05:19:17.408Z,1.32
2023-03-05T05:20:17.050Z,1.32
2023-03-05T05:21:17.035Z,1.36
2023-03-05T05:22:17.033Z,1.33
2023-03-05T05:23:17.059Z,1.34
2023-03-05T05:24:17.012Z,1.34
2023-03-05T05:25:16.998Z,1.34
2023-03-05T05:26:16.991Z,1.36
2023-03-05T05:27:16.939Z,1.36
2023-03-05T05:28:16.991Z,1.37
2023-03-05T05:29:16.911Z,1.37
2023-03-05T05:30:16.897Z,1.37
2023-03-05T05:31:16.911Z,1.37
2023-03-05T05:32:16.906Z,1.36
2023-03-05T05:33:16.906Z,1.36
2023-03-05T05:34:16.870Z,1.36
2023-03-05T05:35:16.843Z,1.33
2023-03-05T05:36:16.838Z,1.29
2023-03-05T05:37:16.831Z,1.32
2023-03-05T05:38:16.820Z,1.33
2023-03-05T05:39:18.125Z,1.32
2023-03-05T05:40:16.806Z,1.33
2023-03-05T05:41:16.795Z,1.29
2023-03-05T05:42:16.781Z,1.32
2023-03-05T05:43:16.765Z,1.32
2023-03-05T05:44:16.790Z,1.34
2023-03-05T05:45:16.811Z,1.33
2023-03-05T05:46:16.812Z,1.32
2023-03-05T05:47:16.728Z,1.33
2023-03-05T05:48:16.812Z,1.33
2023-03-05T05:49:16.734Z,1.34
2023-03-05T05:50:16.710Z,1.36
2023-03-05T05:51:16.695Z,1.40
2023-03-05T05:52:16.678Z,1.43
2023-03-05T05:53:16.667Z,1.44
2023-03-05T05:54:16.700Z,1.46
2023-03-05T05:55:16.645Z,1.46
2023-03-05T05:56:16.653Z,1.46
2023-03-05T05:57:16.624Z,1.44
2023-03-05T05:58:16.624Z,1.44
2023-03-05T05:59:16.620Z,1.43
2023-03-05T06:00:16.600Z,1.43
2023-03-05T06:01:16.586Z,1.42
2023-03-05T06:02:16.614Z,1.42
2023-03-05T06:03:16.597Z,1.40
2023-03-05T06:04:16.610Z,1.39
2023-03-05T06:05:16.547Z,1.40
2023-03-05T06:06:16.544Z,1.40
2023-03-05T06:07:16.531Z,1.40
2023-03-05T06:08:16.520Z,1.36
2023-03-05T06:09:16.527Z,1.42
2023-03-05T06:10:16.515Z,1.42
2023-03-05T06:11:18.938Z,1.47
2023-03-05T06:12:16.482Z,1.51
2023-03-05T06:13:16.474Z,1.50
2023-03-05T06:14:16.491Z,1.50
2023-03-05T06:15:16.452Z,1.50
2023-03-05T06:16:16.464Z,1.54
2023-03-05T06:17:25.136Z,1.52
2023-03-05T06:18:16.423Z,1.54
2023-03-05T06:19:16.438Z,1.51
2023-03-05T06:20:16.401Z,1.51
2023-03-05T06:21:16.393Z,1.52
2023-03-05T06:22:16.379Z,1.50
2023-03-05T06:23:16.376Z,1.42
2023-03-05T06:24:16.373Z,1.42
2023-03-05T06:25:16.363Z,1.39
2023-03-05T06:26:16.382Z,1.36
2023-03-05T06:27:16.341Z,1.36
2023-03-05T06:28:16.317Z,1.29
2023-03-05T06:29:16.331Z,1.24
2023-03-05T06:30:16.297Z,1.16
2023-03-05T06:31:16.340Z,1.10
2023-03-05T06:32:16.318Z,1.10
2023-03-05T06:33:16.279Z,1.10
2023-03-05T06:34:16.280Z,1.12
2023-03-05T06:35:16.254Z,1.12
2023-03-05T06:36:16.239Z,1.14
2023-03-05T06:37:16.243Z,1.15
2023-03-05T06:38:16.219Z,1.15
2023-03-05T06:39:16.232Z,1.22
2023-03-05T06:40:16.216Z,1.24
2023-03-05T06:41:16.192Z,1.26
2023-03-05T06:42:16.178Z,1.28
2023-03-05T06:43:16.181Z,1.32
2023-03-05T06:44:16.174Z,1.34
2023-03-05T06:45:16.165Z,1.34
2023-03-05T06:46:16.221Z,1.34
2023-03-05T06:47:16.133Z,1.37
2023-03-05T06:48:16.123Z,1.40
2023-03-05T06:49:16.140Z,1.43
2023-03-05T06:50:16.102Z,1.42
2023-03-05T06:51:16.105Z,1.44
2023-03-05T06:52:16.095Z,1.44
2023-03-05T06:53:16.077Z,1.46
2023-03-05T06:54:16.083Z,1.50
2023-03-05T06:55:16.058Z,1.50
2023-03-05T06:56:16.044Z,1.55
2023-03-05T06:57:16.041Z,1.55
2023-03-05T06:58:16.025Z,1.57
2023-03-05T06:59:16.044Z,1.60
2023-03-05T07:00:16.006Z,1.60
2023-03-05T07:01:16.215Z,1.61
2023-03-05T07:02:16.024Z,1.65
2023-03-05T07:03:15.989Z,1.64
2023-03-05T07:04:15.980Z,1.64
2023-03-05T07:05:15.955Z,1.68
2023-03-05T07:06:15.943Z,1.71
2023-03-05T07:07:15.950Z,1.72
2023-03-05T07:08:15.924Z,1.72
2023-03-05T07:09:15.944Z,1.76
2023-03-05T07:10:15.902Z,1.80
2023-03-05T07:11:15.904Z,1.89
2023-03-05T07:12:15.890Z,1.89
2023-03-05T07:13:15.883Z,1.85
2023-03-05T07:14:15.899Z,1.90
2023-03-05T07:15:15.859Z,1.97
2023-03-05T07:16:15.884Z,1.97
2023-03-05T07:17:15.837Z,2.04
2023-03-05T07:18:15.822Z,2.08
2023-03-05T07:19:15.839Z,2.09
2023-03-05T07:20:15.809Z,2.15
2023-03-05T07:21:15.800Z,2.22
2023-03-05T07:22:15.782Z,2.30
2023-03-05T07:23:15.780Z,2.31
2023-03-05T07:24:15.784Z,2.34
2023-03-05T07:25:15.794Z,2.41
2023-03-05T07:26:15.746Z,2.46
2023-03-05T07:27:15.750Z,2.49
2023-03-05T07:28:15.723Z,2.46
2023-03-05T07:29:15.732Z,2.49
2023-03-05T07:30:15.701Z,2.49
2023-03-05T07:31:15.762Z,2.49
2023-03-05T07:32:15.726Z,2.44
2023-03-05T07:33:15.686Z,2.27
2023-03-05T07:34:15.678Z,2.19
2023-03-05T07:35:15.665Z,2.04
2023-03-05T07:36:15.642Z,1.97
2023-03-05T07:37:15.643Z,1.90
2023-03-05T07:38:15.627Z,1.85
2023-03-05T07:39:15.646Z,1.83
2023-03-05T07:40:15.603Z,1.80
2023-03-05T07:41:15.599Z,1.80
2023-03-05T07:42:15.593Z,1.79
2023-03-05T07:43:15.577Z,1.79
2023-03-05T07:44:15.582Z,1.80
2023-03-05T07:45:15.558Z,1.83
2023-03-05T07:46:15.616Z,1.89
2023-03-05T07:47:15.540Z,1.90
2023-03-05T07:48:15.530Z,1.87
2023-03-05T07:49:15.541Z,1.99
2023-03-05T07:50:15.505Z,2.08
2023-03-05T07:51:15.496Z,2.10
2023-03-05T07:52:15.482Z,2.19
2023-03-05T07:53:15.475Z,2.31
2023-03-05T07:54:15.489Z,2.34
2023-03-05T07:55:15.463Z,2.33
2023-03-05T07:56:15.457Z,2.35
2023-03-05T07:57:15.444Z,2.44
2023-03-05T07:58:15.421Z,2.41
2023-03-05T07:59:15.432Z,2.38
2023-03-05T08:00:15.404Z,2.44
2023-03-05T08:01:15.396Z,2.33
2023-03-05T08:02:15.398Z,2.33
2023-03-05T08:03:15.377Z,2.27
2023-03-05T08:04:15.458Z,2.17
2023-03-05T08:05:15.364Z,2.19
2023-03-05T08:06:15.346Z,2.20
2023-03-05T08:07:15.340Z,2.27
2023-03-05T08:08:15.330Z,2.28
2023-03-05T08:09:15.334Z,2.31
2023-03-05T08:10:15.318Z,2.33
2023-03-05T08:11:15.303Z,2.34
2023-03-05T08:12:15.290Z,2.44
2023-03-05T08:13:15.354Z,2.40
2023-03-05T08:14:15.291Z,2.45
2023-03-05T08:15:15.265Z,2.44
2023-03-05T08:16:15.328Z,2.40
2023-03-05T08:17:15.269Z,2.41
2023-03-05T08:18:15.224Z,2.38
2023-03-05T08:19:15.246Z,2.44
2023-03-05T08:20:15.206Z,2.38
2023-03-05T08:21:15.200Z,2.37
2023-03-05T08:22:15.179Z,2.41
2023-03-05T08:23:15.196Z,2.46
2023-03-05T08:24:15.160Z,2.55
2023-03-05T08:25:15.171Z,2.67
2023-03-05T08:26:15.142Z,2.82
2023-03-05T08:27:15.131Z,3.02
2023-03-05T08:28:15.117Z,3.10
2023-03-05T08:29:15.134Z,3.23
2023-03-05T08:30:15.124Z,3.28
2023-03-05T08:31:15.125Z,3.40
2023-03-05T08:32:15.090Z,3.25
2023-03-05T08:33:15.097Z,3.16
2023-03-05T08:34:15.064Z,3.16
2023-03-05T08:35:15.073Z,3.07
2023-03-05T08:36:15.044Z,3.02
2023-03-05T08:37:15.036Z,2.97
2023-03-05T08:38:15.018Z,3.03
2023-03-05T08:39:15.016Z,3.12
2023-03-05T08:40:15.020Z,3.24
2023-03-05T08:41:14.992Z,3.36
2023-03-05T08:42:14.981Z,3.46
2023-03-05T08:43:14.980Z,3.43
2023-03-05T08:44:14.963Z,3.46
2023-03-05T08:45:14.987Z,3.49
2023-03-05T08:46:14.953Z,3.47
2023-03-05T08:47:14.948Z,3.43
2023-03-05T08:48:14.922Z,3.39
2023-03-05T08:49:14.939Z,3.46
2023-03-05T08:50:14.932Z,3.60
2023-03-05T08:51:14.939Z,3.62
2023-03-05T08:52:14.904Z,3.72
2023-03-05T08:53:14.912Z,3.88
2023-03-05T08:54:14.861Z,3.80
2023-03-05T08:55:14.878Z,3.64
2023-03-05T08:56:14.843Z,3.58
2023-03-05T08:57:14.835Z,3.57
2023-03-05T08:58:14.828Z,3.67
2023-03-05T08:59:14.817Z,3.80
2023-03-05T09:00:14.812Z,3.96
2023-03-05T09:01:14.799Z,4.12
2023-03-05T09:02:14.788Z,4.19
2023-03-05T09:03:14.952Z,4.24
2023-03-05T09:04:14.758Z,4.26
2023-03-05T09:05:14.764Z,4.28
2023-03-05T09:06:14.737Z,4.34
2023-03-05T09:07:14.737Z,4.22
2023-03-05T09:08:14.736Z,4.29
2023-03-05T09:09:14.712Z,4.43
2023-03-05T09:10:14.714Z,4.70
2023-03-05T09:11:14.719Z,4.73
2023-03-05T09:12:14.689Z,5.05
2023-03-05T09:13:14.710Z,5.14
2023-03-05T09:14:14.657Z,5.19
2023-03-05T09:15:14.717Z,4.88
2023-03-05T09:16:14.663Z,4.99
2023-03-05T09:17:14.632Z,5.46
2023-03-05T09:18:14.619Z,5.74
2023-03-05T09:19:14.614Z,5.98
2023-03-05T09:20:14.617Z,5.56
2023-03-05T09:21:14.590Z,5.35
2023-03-05T09:22:14.575Z,5.67
2023-03-05T09:23:14.612Z,5.96
2023-03-05T09:24:14.608Z,6.07
2023-03-05T09:25:14.561Z,6.68
2023-03-05T09:26:14.533Z,6.33
2023-03-05T09:27:14.531Z,5.89
2023-03-05T09:28:14.518Z,5.52
2023-03-05T09:29:14.509Z,5.40
2023-03-05T09:30:14.533Z,5.43
2023-03-05T09:31:14.559Z,5.34
2023-03-05T09:32:14.545Z,5.30
2023-03-05T09:33:14.599Z,5.13
2023-03-05T09:34:14.454Z,4.91
2023-03-05T09:35:14.477Z,4.98
2023-03-05T09:36:14.464Z,5.02
2023-03-05T09:37:14.424Z,4.95
2023-03-05T09:38:14.454Z,4.64
2023-03-05T09:39:14.411Z,4.24
2023-03-05T09:40:14.452Z,4.19
2023-03-05T09:41:14.377Z,3.97
2023-03-05T09:42:14.368Z,3.85
2023-03-05T09:43:14.372Z,3.71
2023-03-05T09:44:14.368Z,3.70
2023-03-05T09:45:14.366Z,3.72
2023-03-05T09:46:14.390Z,3.72
2023-03-05T09:47:14.827Z,3.65
2023-03-05T09:48:14.318Z,3.64
2023-03-05T09:49:14.302Z,3.61
2023-03-05T09:50:14.327Z,3.65
2023-03-05T09:51:14.286Z,3.70
2023-03-05T09:52:14.274Z,3.75
2023-03-05T09:53:14.267Z,3.68
2023-03-05T09:54:14.255Z,3.79
2023-03-05T09:55:14.271Z,3.86
2023-03-05T09:56:14.240Z,3.88
2023-03-05T09:57:14.221Z,3.94
2023-03-05T09:58:14.229Z,3.92
2023-03-05T09:59:14.201Z,4.08
2023-03-05T10:00:14.218Z,4.16
2023-03-05T10:01:14.180Z,4.32
2023-03-05T10:02:14.163Z,4.59
2023-03-05T10:03:14.306Z,4.76
2023-03-05T10:04:14.238Z,5.05
2023-03-05T10:05:14.174Z,5.17
2023-03-05T10:06:14.126Z,5.05
2023-03-05T10:07:14.148Z,4.96
2023-03-05T10:08:14.102Z,4.91
2023-03-05T10:09:14.102Z,5.12
2023-03-05T10:10:14.104Z,5.40
2023-03-05T10:11:14.083Z,5.73
2023-03-05T10:12:14.072Z,6.22
2023-03-05T10:13:14.067Z,6.43
2023-03-05T10:14:14.072Z,6.58
2023-03-05T10:15:14.058Z,6.56
2023-03-05T10:16:14.068Z,6.59
2023-03-05T10:17:14.018Z,6.36
2023-03-05T10:18:14.003Z,6.21
2023-03-05T10:19:14.003Z,6.13
2023-03-05T10:20:13.992Z,6.26
2023-03-05T10:21:13.982Z,6.40
2023-03-05T10:22:13.963Z,6.51
2023-03-05T10:23:13.958Z,6.41
2023-03-05T10:24:13.941Z,6.13
2023-03-05T10:25:13.959Z,5.98
2023-03-05T10:26:13.916Z,5.89
2023-03-05T10:27:13.952Z,5.83
2023-03-05T10:28:13.904Z,5.75
2023-03-05T10:29:13.899Z,5.75
2023-03-05T10:30:13.904Z,5.35
2023-03-05T10:31:13.876Z,5.38
2023-03-05T10:32:13.958Z,5.27
2023-03-05T10:33:13.849Z,5.13
2023-03-05T10:34:13.844Z,4.99
2023-03-05T10:35:13.851Z,4.88
2023-03-05T10:36:13.845Z,4.70
2023-03-05T10:37:13.804Z,4.62
2023-03-05T10:38:13.801Z,4.57
2023-03-05T10:39:13.798Z,4.44
2023-03-05T10:40:13.803Z,4.28
2023-03-05T10:41:13.763Z,4.12
2023-03-05T10:42:13.766Z,4.00
2023-03-05T10:43:13.745Z,4.00
2023-03-05T10:44:13.755Z,3.97
2023-03-05T10:45:14.288Z,3.96
2023-03-05T10:46:13.770Z,3.78
2023-03-05T10:47:13.706Z,3.71
2023-03-05T10:48:13.700Z,3.54
2023-03-05T10:49:13.692Z,3.42
2023-03-05T10:50:13.685Z,3.27
2023-03-05T10:51:13.682Z,3.13
2023-03-05T10:52:13.660Z,2.95
2023-03-05T10:53:13.646Z,2.73
2023-03-05T10:54:13.645Z,2.56
2023-03-05T10:55:13.627Z,2.41
2023-03-05T10:56:13.653Z,2.33
2023-03-05T10:57:13.597Z,2.41
2023-03-05T10:58:13.612Z,2.52
2023-03-05T10:59:13.589Z,2.70
2023-03-05T11:00:13.581Z,2.87
2023-03-05T11:01:13.606Z,2.91
2023-03-05T11:02:13.661Z,2.94
2023-03-05T11:03:13.543Z,2.97
2023-03-05T11:04:13.559Z,2.98
2023-03-05T11:05:13.532Z,3.24
2023-03-05T11:06:13.533Z,3.49
2023-03-05T11:07:13.497Z,3.72
2023-03-05T11:08:13.500Z,3.96
2023-03-05T11:09:13.503Z,4.37
2023-03-05T11:10:13.482Z,4.83
2023-03-05T11:11:13.487Z,5.17
2023-03-05T11:12:13.455Z,5.60
2023-03-05T11:13:13.448Z,5.85
2023-03-05T11:14:13.431Z,5.74
2023-03-05T11:15:13.429Z,5.95
2023-03-05T11:16:13.494Z,5.77
2023-03-05T11:17:13.400Z,5.66
2023-03-05T11:18:13.389Z,5.75
2023-03-05T11:19:13.372Z,5.74
2023-03-05T11:20:13.371Z,5.98
2023-03-05T11:21:13.372Z,5.98
2023-03-05T11:22:13.360Z,6.14
2023-03-05T11:23:13.355Z,7.37
2023-03-05T11:24:13.327Z,7.40
2023-03-05T11:25:13.315Z,8.36
2023-03-05T11:26:13.318Z,8.32
2023-03-05T11:27:13.293Z,8.44
2023-03-05T11:28:15.301Z,8.26
2023-03-05T11:29:13.269Z,8.10
2023-03-05T11:30:13.259Z,7.62
2023-03-05T11:31:13.292Z,7.75
2023-03-05T11:32:13.273Z,7.42
2023-03-05T11:33:13.231Z,7.50
2023-03-05T11:34:13.234Z,7.94
2023-03-05T11:35:13.205Z,8.96
2023-03-05T11:36:13.219Z,9.31
2023-03-05T11:37:13.188Z,7.92
2023-03-05T11:38:13.207Z,6.50
2023-03-05T11:39:13.175Z,5.82
2023-03-05T11:40:13.168Z,5.56
2023-03-05T11:41:13.165Z,5.77
2023-03-05T11:42:13.153Z,5.68
2023-03-05T11:43:13.151Z,5.70
2023-03-05T11:44:13.706Z,5.91
2023-03-05T11:45:13.107Z,7.37
2023-03-05T11:46:13.127Z,7.67
2023-03-05T11:47:13.105Z,7.50
2023-03-05T11:48:13.092Z,7.94
2023-03-05T11:49:13.073Z,8.14
2023-03-05T11:50:13.089Z,8.88
2023-03-05T11:51:13.063Z,8.51
2023-03-05T11:52:13.039Z,8.29
2023-03-05T11:53:13.033Z,7.82
2023-03-05T11:54:13.048Z,7.09
2023-03-05T11:55:13.008Z,6.81
2023-03-05T11:56:13.011Z,6.43
2023-03-05T11:57:12.982Z,6.30
2023-03-05T11:58:12.982Z,6.33
2023-03-05T11:59:12.980Z,5.83
2023-03-05T12:00:12.965Z,6.01
2023-03-05T12:01:12.966Z,6.03
2023-03-05T12:02:12.937Z,6.06
2023-03-05T12:03:13.011Z,5.77
2023-03-05T12:04:13.001Z,5.66
2023-03-05T12:05:12.908Z,5.56
2023-03-05T12:06:12.919Z,5.66
2023-03-05T12:07:12.890Z,5.59
2023-03-05T12:08:12.879Z,5.63
2023-03-05T12:09:12.869Z,5.71
2023-03-05T12:10:12.856Z,5.82
2023-03-05T12:11:12.854Z,5.83
2023-03-05T12:12:12.837Z,5.66
2023-03-05T12:13:12.827Z,5.35
2023-03-05T12:14:12.823Z,5.63
2023-03-05T12:15:12.832Z,5.75
2023-03-05T12:16:12.888Z,5.74
2023-03-05T12:17:12.782Z,6.99
2023-03-05T12:18:12.791Z,7.97
2023-03-05T12:19:12.767Z,8.44
2023-03-05T12:20:12.793Z,8.55
2023-03-05T12:21:12.760Z,7.84
2023-03-05T12:22:12.750Z,7.52
2023-03-05T12:23:12.748Z,8.21
2023-03-05T12:24:12.719Z,8.17
2023-03-05T12:25:12.704Z,7.63
2023-03-05T12:26:12.720Z,7.26
2023-03-05T12:27:12.704Z,6.87
2023-03-05T12:28:12.683Z,6.68
2023-03-05T12:29:12.662Z,6.77
2023-03-05T12:30:12.656Z,7.12
2023-03-05T12:31:12.682Z,7.60
2023-03-05T12:32:12.738Z,8.48
2023-03-05T12:33:12.617Z,8.50
2023-03-05T12:34:12.613Z,8.93
2023-03-05T12:35:12.597Z,9.70
2023-03-05T12:36:12.612Z,9.70
2023-03-05T12:37:12.582Z,9.31
2023-03-05T12:38:26.202Z,10.19
2023-03-05T12:39:12.561Z,9.73
2023-03-05T12:40:12.554Z,9.35
2023-03-05T12:41:12.549Z,10.10
2023-03-05T12:42:12.534Z,10.84
2023-03-05T12:43:12.515Z,11.11
2023-03-05T12:44:12.510Z,10.81
2023-03-05T12:45:12.504Z,11.03
2023-03-05T12:46:12.533Z,11.52
2023-03-05T12:47:12.477Z,12.11
2023-03-05T12:48:12.588Z,12.20
2023-03-05T12:49:12.455Z,12.38
2023-03-05T12:50:12.452Z,12.38
2023-03-05T12:51:12.444Z,11.52
2023-03-05T12:52:12.429Z,11.44
2023-03-05T12:53:12.419Z,11.38
2023-03-05T12:54:12.405Z,11.82
2023-03-05T12:55:12.389Z,11.21
2023-03-05T12:56:12.854Z,10.12
2023-03-05T12:57:12.379Z,9.24
2023-03-05T12:58:12.366Z,9.40
2023-03-05T12:59:12.348Z,10.33
2023-03-05T13:00:12.344Z,10.74
2023-03-05T13:01:12.507Z,10.95
2023-03-05T13:02:12.340Z,10.83
2023-03-05T13:03:12.312Z,10.52
2023-03-05T13:04:12.297Z,11.29
2023-03-05T13:05:12.278Z,10.30
2023-03-05T13:06:12.300Z,10.34
2023-03-05T13:07:12.262Z,10.70
2023-03-05T13:08:15.467Z,11.16
2023-03-05T13:09:12.316Z,11.82
2023-03-05T13:10:12.258Z,11.99
2023-03-05T13:11:12.229Z,11.16
2023-03-05T13:12:12.338Z,9.75
2023-03-05T13:13:12.210Z,8.93
2023-03-05T13:14:12.220Z,8.32
2023-03-05T13:15:12.169Z,7.92
2023-03-05T13:16:12.186Z,7.74
2023-03-05T13:17:12.153Z,7.69